sensor_id;sensor_type;location;lat;lon;timestamp;P1;durP1;ratioP1;P2;durP2;ratioP2
55710;SDS011;41612;51.994;5.880;2023-10-31T00:01:12;3.42;;;1.83;;
55710;SDS011;41612;51.994;5.880;2023-10-31T00:03:38;3.72;;;1.50;;
55710;SDS011;41612;51.994;5.880;2023-10-31T00:06:09;2.85;;;1.20;;
55710;SDS011;41612;51.994;5.880;2023-10-31T00:08:38;3.50;;;1.73;;
55710;SDS011;41612;51.994;5.880;2023-10-31T00:11:05;2.58;;;1.17;;
55710;SDS011;41612;51.994;5.880;2023-10-31T00:13:53;4.47;;;2.85;;
55710;SDS011;41612;51.994;5.880;2023-10-31T00:16:22;4.13;;;1.45;;
55710;SDS011;41612;51.994;5.880;2023-10-31T00:19:34;4.68;;;1.48;;
55710;SDS011;41612;51.994;5.880;2023-10-31T00:23:03;4.00;;;1.70;;
55710;SDS011;41612;51.994;5.880;2023-10-31T00:25:29;2.00;;;1.40;;
55710;SDS011;41612;51.994;5.880;2023-10-31T00:27:55;2.00;;;1.20;;
55710;SDS011;41612;51.994;5.880;2023-10-31T00:30:23;4.85;;;1.35;;
55710;SDS011;41612;51.994;5.880;2023-10-31T00:32:49;4.28;;;1.50;;
55710;SDS011;41612;51.994;5.880;2023-10-31T00:35:15;2.40;;;1.20;;
55710;SDS011;41612;51.994;5.880;2023-10-31T00:37:45;2.40;;;1.60;;
55710;SDS011;41612;51.994;5.880;2023-10-31T00:40:14;2.80;;;1.20;;
55710;SDS011;41612;51.994;5.880;2023-10-31T00:42:41;4.05;;;1.40;;
55710;SDS011;41612;51.994;5.880;2023-10-31T00:49:59;1.88;;;0.90;;
55710;SDS011;41612;51.994;5.880;2023-10-31T00:52:26;2.20;;;1.27;;
55710;SDS011;41612;51.994;5.880;2023-10-31T00:54:56;5.32;;;1.30;;
55710;SDS011;41612;51.994;5.880;2023-10-31T00:57:22;3.72;;;1.30;;
55710;SDS011;41612;51.994;5.880;2023-10-31T00:59:48;4.80;;;1.48;;
55710;SDS011;41612;51.994;5.880;2023-10-31T01:06:18;6.00;;;1.40;;
55710;SDS011;41612;51.994;5.880;2023-10-31T01:25:01;7.95;;;5.93;;
55710;SDS011;41612;51.994;5.880;2023-10-31T01:27:32;8.40;;;4.20;;
55710;SDS011;41612;51.994;5.880;2023-10-31T01:29:59;7.50;;;4.38;;
55710;SDS011;41612;51.994;5.880;2023-10-31T01:32:27;10.35;;;6.32;;
55710;SDS011;41612;51.994;5.880;2023-10-31T01:34:54;7.18;;;4.68;;
55710;SDS011;41612;51.994;5.880;2023-10-31T01:49:41;14.27;;;6.88;;
55710;SDS011;41612;51.994;5.880;2023-10-31T01:53:16;9.35;;;4.93;;
55710;SDS011;41612;51.994;5.880;2023-10-31T01:57:12;5.00;;;3.05;;
55710;SDS011;41612;51.994;5.880;2023-10-31T01:59:39;17.75;;;8.95;;
55710;SDS011;41612;51.994;5.880;2023-10-31T02:02:06;11.20;;;4.60;;
55710;SDS011;41612;51.994;5.880;2023-10-31T02:04:33;8.07;;;5.07;;
55710;SDS011;41612;51.994;5.880;2023-10-31T02:06:59;14.23;;;8.23;;
55710;SDS011;41612;51.994;5.880;2023-10-31T02:09:25;15.13;;;9.40;;
55710;SDS011;41612;51.994;5.880;2023-10-31T02:11:54;8.30;;;5.15;;
55710;SDS011;41612;51.994;5.880;2023-10-31T02:14:28;13.35;;;8.52;;
55710;SDS011;41612;51.994;5.880;2023-10-31T02:16:53;14.80;;;9.77;;
55710;SDS011;41612;51.994;5.880;2023-10-31T02:19:20;19.40;;;11.50;;
55710;SDS011;41612;51.994;5.880;2023-10-31T02:21:47;15.98;;;10.60;;
55710;SDS011;41612;51.994;5.880;2023-10-31T02:24:13;17.60;;;10.43;;
55710;SDS011;41612;51.994;5.880;2023-10-31T02:26:39;11.18;;;7.53;;
55710;SDS011;41612;51.994;5.880;2023-10-31T02:29:04;17.65;;;11.32;;
55710;SDS011;41612;51.994;5.880;2023-10-31T02:31:31;18.52;;;11.30;;
55710;SDS011;41612;51.994;5.880;2023-10-31T02:33:59;19.15;;;13.18;;
55710;SDS011;41612;51.994;5.880;2023-10-31T02:36:25;10.85;;;7.25;;
55710;SDS011;41612;51.994;5.880;2023-10-31T02:38:51;11.27;;;6.93;;
55710;SDS011;41612;51.994;5.880;2023-10-31T02:41:19;15.90;;;11.35;;
55710;SDS011;41612;51.994;5.880;2023-10-31T02:43:45;11.40;;;7.68;;
55710;SDS011;41612;51.994;5.880;2023-10-31T02:46:11;20.08;;;13.10;;
55710;SDS011;41612;51.994;5.880;2023-10-31T02:48:38;14.15;;;9.85;;
55710;SDS011;41612;51.994;5.880;2023-10-31T02:52:26;11.93;;;8.03;;
55710;SDS011;41612;51.994;5.880;2023-10-31T02:54:53;14.80;;;10.20;;
55710;SDS011;41612;51.994;5.880;2023-10-31T03:01:13;6.97;;;5.32;;
55710;SDS011;41612;51.994;5.880;2023-10-31T03:03:40;22.40;;;13.50;;
55710;SDS011;41612;51.994;5.880;2023-10-31T03:06:09;17.55;;;10.88;;
55710;SDS011;41612;51.994;5.880;2023-10-31T03:08:35;19.63;;;13.18;;
55710;SDS011;41612;51.994;5.880;2023-10-31T03:11:03;13.90;;;9.93;;
55710;SDS011;41612;51.994;5.880;2023-10-31T03:13:30;24.42;;;14.13;;
55710;SDS011;41612;51.994;5.880;2023-10-31T03:15:56;17.45;;;11.00;;
55710;SDS011;41612;51.994;5.880;2023-10-31T03:18:23;12.20;;;9.50;;
55710;SDS011;41612;51.994;5.880;2023-10-31T03:20:54;16.40;;;10.30;;
55710;SDS011;41612;51.994;5.880;2023-10-31T03:23:19;18.17;;;11.30;;
55710;SDS011;41612;51.994;5.880;2023-10-31T03:25:46;11.18;;;7.60;;
55710;SDS011;41612;51.994;5.880;2023-10-31T03:28:18;14.38;;;8.57;;
55710;SDS011;41612;51.994;5.880;2023-10-31T03:30:47;14.98;;;10.95;;
55710;SDS011;41612;51.994;5.880;2023-10-31T03:33:17;16.45;;;11.60;;
55710;SDS011;41612;51.994;5.880;2023-10-31T03:35:46;19.65;;;13.48;;
55710;SDS011;41612;51.994;5.880;2023-10-31T03:38:12;20.55;;;13.77;;
55710;SDS011;41612;51.994;5.880;2023-10-31T03:40:39;19.67;;;13.27;;
55710;SDS011;41612;51.994;5.880;2023-10-31T03:43:04;12.07;;;7.68;;
55710;SDS011;41612;51.994;5.880;2023-10-31T03:45:36;15.02;;;11.10;;
55710;SDS011;41612;51.994;5.880;2023-10-31T03:48:02;49.22;;;14.75;;
55710;SDS011;41612;51.994;5.880;2023-10-31T03:50:29;19.52;;;12.63;;
55710;SDS011;41612;51.994;5.880;2023-10-31T03:52:56;13.25;;;8.77;;
55710;SDS011;41612;51.994;5.880;2023-10-31T03:55:21;10.23;;;6.95;;
55710;SDS011;41612;51.994;5.880;2023-10-31T03:57:48;11.30;;;7.28;;
55710;SDS011;41612;51.994;5.880;2023-10-31T04:00:15;10.85;;;6.93;;
55710;SDS011;41612;51.994;5.880;2023-10-31T04:02:44;10.40;;;6.10;;
55710;SDS011;41612;51.994;5.880;2023-10-31T04:05:10;14.80;;;9.43;;
55710;SDS011;41612;51.994;5.880;2023-10-31T04:07:36;13.10;;;7.85;;
55710;SDS011;41612;51.994;5.880;2023-10-31T04:10:03;10.73;;;7.90;;
55710;SDS011;41612;51.994;5.880;2023-10-31T04:12:29;10.40;;;7.25;;
55710;SDS011;41612;51.994;5.880;2023-10-31T04:14:54;11.02;;;8.50;;
55710;SDS011;41612;51.994;5.880;2023-10-31T04:17:20;10.20;;;7.07;;
55710;SDS011;41612;51.994;5.880;2023-10-31T04:19:46;12.15;;;8.45;;
55710;SDS011;41612;51.994;5.880;2023-10-31T04:22:12;10.73;;;7.40;;
55710;SDS011;41612;51.994;5.880;2023-10-31T04:24:37;9.32;;;6.65;;
55710;SDS011;41612;51.994;5.880;2023-10-31T04:27:05;9.27;;;6.55;;
55710;SDS011;41612;51.994;5.880;2023-10-31T04:29:35;9.48;;;5.03;;
55710;SDS011;41612;51.994;5.880;2023-10-31T04:32:02;7.32;;;4.60;;
55710;SDS011;41612;51.994;5.880;2023-10-31T04:46:15;7.65;;;4.55;;
55710;SDS011;41612;51.994;5.880;2023-10-31T04:48:41;5.32;;;3.58;;
55710;SDS011;41612;51.994;5.880;2023-10-31T04:51:07;7.15;;;4.53;;
55710;SDS011;41612;51.994;5.880;2023-10-31T04:53:33;6.35;;;3.78;;
55710;SDS011;41612;51.994;5.880;2023-10-31T04:56:00;8.93;;;5.20;;
55710;SDS011;41612;51.994;5.880;2023-10-31T05:01:16;7.03;;;3.53;;
55710;SDS011;41612;51.994;5.880;2023-10-31T05:04:00;8.43;;;4.60;;
55710;SDS011;41612;51.994;5.880;2023-10-31T05:06:26;11.02;;;5.38;;
55710;SDS011;41612;51.994;5.880;2023-10-31T05:08:54;4.60;;;3.45;;
55710;SDS011;41612;51.994;5.880;2023-10-31T05:11:19;8.98;;;4.70;;
55710;SDS011;41612;51.994;5.880;2023-10-31T05:13:46;9.43;;;5.38;;
55710;SDS011;41612;51.994;5.880;2023-10-31T05:16:12;7.70;;;5.15;;
55710;SDS011;41612;51.994;5.880;2023-10-31T05:26:13;5.72;;;4.15;;
55710;SDS011;41612;51.994;5.880;2023-10-31T05:28:45;5.20;;;3.55;;
55710;SDS011;41612;51.994;5.880;2023-10-31T05:31:14;8.23;;;4.38;;
55710;SDS011;41612;51.994;5.880;2023-10-31T05:33:41;7.80;;;4.72;;
55710;SDS011;41612;51.994;5.880;2023-10-31T05:39:55;8.97;;;5.37;;
55710;SDS011;41612;51.994;5.880;2023-10-31T05:42:21;9.30;;;6.68;;
55710;SDS011;41612;51.994;5.880;2023-10-31T05:44:51;14.55;;;6.60;;
55710;SDS011;41612;51.994;5.880;2023-10-31T05:47:18;12.68;;;5.53;;
55710;SDS011;41612;51.994;5.880;2023-10-31T05:49:56;8.77;;;5.28;;
55710;SDS011;41612;51.994;5.880;2023-10-31T05:52:31;11.13;;;6.18;;
55710;SDS011;41612;51.994;5.880;2023-10-31T05:54:57;14.82;;;7.63;;
55710;SDS011;41612;51.994;5.880;2023-10-31T05:57:23;9.50;;;6.65;;
55710;SDS011;41612;51.994;5.880;2023-10-31T05:59:50;11.10;;;6.63;;
55710;SDS011;41612;51.994;5.880;2023-10-31T06:02:22;13.75;;;7.43;;
55710;SDS011;41612;51.994;5.880;2023-10-31T06:04:51;11.27;;;6.57;;
55710;SDS011;41612;51.994;5.880;2023-10-31T06:07:17;13.35;;;8.00;;
55710;SDS011;41612;51.994;5.880;2023-10-31T06:09:48;5.50;;;3.20;;
55710;SDS011;41612;51.994;5.880;2023-10-31T06:12:15;7.95;;;5.35;;
55710;SDS011;41612;51.994;5.880;2023-10-31T06:14:41;9.60;;;5.00;;
55710;SDS011;41612;51.994;5.880;2023-10-31T06:17:07;11.27;;;6.50;;
55710;SDS011;41612;51.994;5.880;2023-10-31T06:19:36;8.82;;;5.85;;
55710;SDS011;41612;51.994;5.880;2023-10-31T06:22:07;5.97;;;4.00;;
55710;SDS011;41612;51.994;5.880;2023-10-31T06:24:48;6.80;;;3.67;;
55710;SDS011;41612;51.994;5.880;2023-10-31T06:27:27;11.23;;;5.53;;
55710;SDS011;41612;51.994;5.880;2023-10-31T06:30:03;6.60;;;4.53;;
55710;SDS011;41612;51.994;5.880;2023-10-31T06:32:55;8.40;;;4.10;;
55710;SDS011;41612;51.994;5.880;2023-10-31T06:35:26;8.75;;;4.18;;
55710;SDS011;41612;51.994;5.880;2023-10-31T06:37:54;5.57;;;3.33;;
55710;SDS011;41612;51.994;5.880;2023-10-31T06:40:28;7.60;;;4.20;;
55710;SDS011;41612;51.994;5.880;2023-10-31T06:43:02;7.45;;;3.28;;
55710;SDS011;41612;51.994;5.880;2023-10-31T06:45:43;7.13;;;3.03;;
55710;SDS011;41612;51.994;5.880;2023-10-31T06:48:10;5.68;;;3.13;;
55710;SDS011;41612;51.994;5.880;2023-10-31T06:50:36;4.65;;;2.65;;
55710;SDS011;41612;51.994;5.880;2023-10-31T06:53:03;6.47;;;3.05;;
55710;SDS011;41612;51.994;5.880;2023-10-31T06:55:33;6.53;;;3.00;;
55710;SDS011;41612;51.994;5.880;2023-10-31T06:58:00;8.20;;;2.80;;
55710;SDS011;41612;51.994;5.880;2023-10-31T07:00:25;4.43;;;2.45;;
55710;SDS011;41612;51.994;5.880;2023-10-31T07:02:52;7.82;;;3.90;;
55710;SDS011;41612;51.994;5.880;2023-10-31T07:05:18;6.45;;;3.00;;
55710;SDS011;41612;51.994;5.880;2023-10-31T07:07:46;9.50;;;4.18;;
55710;SDS011;41612;51.994;5.880;2023-10-31T07:10:12;7.05;;;4.80;;
55710;SDS011;41612;51.994;5.880;2023-10-31T07:12:37;11.13;;;6.10;;
55710;SDS011;41612;51.994;5.880;2023-10-31T07:15:05;12.32;;;7.07;;
55710;SDS011;41612;51.994;5.880;2023-10-31T07:17:32;7.63;;;5.05;;
55710;SDS011;41612;51.994;5.880;2023-10-31T07:19:58;8.75;;;5.57;;
55710;SDS011;41612;51.994;5.880;2023-10-31T07:22:24;13.73;;;7.40;;
55710;SDS011;41612;51.994;5.880;2023-10-31T07:24:50;13.90;;;8.00;;
55710;SDS011;41612;51.994;5.880;2023-10-31T07:27:16;12.13;;;7.88;;
55710;SDS011;41612;51.994;5.880;2023-10-31T07:29:43;15.38;;;9.57;;
55710;SDS011;41612;51.994;5.880;2023-10-31T07:32:10;15.75;;;10.30;;
55710;SDS011;41612;51.994;5.880;2023-10-31T07:34:36;9.18;;;5.65;;
55710;SDS011;41612;51.994;5.880;2023-10-31T07:37:01;14.85;;;8.45;;
55710;SDS011;41612;51.994;5.880;2023-10-31T07:39:28;14.02;;;9.43;;
55710;SDS011;41612;51.994;5.880;2023-10-31T07:41:54;15.75;;;10.00;;
55710;SDS011;41612;51.994;5.880;2023-10-31T07:44:23;15.05;;;10.30;;
55710;SDS011;41612;51.994;5.880;2023-10-31T07:46:52;14.88;;;7.68;;
55710;SDS011;41612;51.994;5.880;2023-10-31T07:49:18;16.83;;;9.23;;
55710;SDS011;41612;51.994;5.880;2023-10-31T07:51:45;22.67;;;13.45;;
55710;SDS011;41612;51.994;5.880;2023-10-31T07:54:13;25.33;;;13.52;;
55710;SDS011;41612;51.994;5.880;2023-10-31T07:56:40;15.40;;;9.43;;
55710;SDS011;41612;51.994;5.880;2023-10-31T07:59:08;17.70;;;13.15;;
55710;SDS011;41612;51.994;5.880;2023-10-31T08:01:36;16.95;;;12.55;;
55710;SDS011;41612;51.994;5.880;2023-10-31T08:04:02;22.10;;;14.48;;
55710;SDS011;41612;51.994;5.880;2023-10-31T08:06:29;19.52;;;12.23;;
55710;SDS011;41612;51.994;5.880;2023-10-31T08:08:55;16.33;;;11.63;;
55710;SDS011;41612;51.994;5.880;2023-10-31T08:11:21;16.67;;;10.10;;
55710;SDS011;41612;51.994;5.880;2023-10-31T08:13:48;20.25;;;12.82;;
55710;SDS011;41612;51.994;5.880;2023-10-31T08:16:19;21.55;;;15.00;;
55710;SDS011;41612;51.994;5.880;2023-10-31T08:18:48;17.13;;;11.63;;
55710;SDS011;41612;51.994;5.880;2023-10-31T08:21:14;10.70;;;7.32;;
55710;SDS011;41612;51.994;5.880;2023-10-31T08:23:40;20.00;;;13.98;;
55710;SDS011;41612;51.994;5.880;2023-10-31T08:26:09;20.65;;;14.20;;
55710;SDS011;41612;51.994;5.880;2023-10-31T08:28:36;14.70;;;9.82;;
55710;SDS011;41612;51.994;5.880;2023-10-31T08:31:02;18.63;;;12.98;;
55710;SDS011;41612;51.994;5.880;2023-10-31T08:33:28;14.80;;;8.48;;
55710;SDS011;41612;51.994;5.880;2023-10-31T08:35:55;16.23;;;9.95;;
55710;SDS011;41612;51.994;5.880;2023-10-31T08:38:23;9.50;;;5.32;;
55710;SDS011;41612;51.994;5.880;2023-10-31T08:40:49;11.77;;;8.82;;
55710;SDS011;41612;51.994;5.880;2023-10-31T08:43:14;9.43;;;6.30;;
55710;SDS011;41612;51.994;5.880;2023-10-31T08:45:40;8.25;;;6.28;;
55710;SDS011;41612;51.994;5.880;2023-10-31T08:48:08;15.02;;;9.93;;
55710;SDS011;41612;51.994;5.880;2023-10-31T08:50:33;14.18;;;8.93;;
55710;SDS011;41612;51.994;5.880;2023-10-31T08:53:00;11.05;;;6.88;;
55710;SDS011;41612;51.994;5.880;2023-10-31T08:55:27;13.23;;;7.38;;
55710;SDS011;41612;51.994;5.880;2023-10-31T08:57:52;9.43;;;6.40;;
55710;SDS011;41612;51.994;5.880;2023-10-31T09:00:18;12.02;;;7.32;;
55710;SDS011;41612;51.994;5.880;2023-10-31T09:02:44;14.10;;;7.40;;
55710;SDS011;41612;51.994;5.880;2023-10-31T09:05:11;10.98;;;6.57;;
55710;SDS011;41612;51.994;5.880;2023-10-31T09:07:37;6.60;;;3.97;;
55710;SDS011;41612;51.994;5.880;2023-10-31T09:10:04;9.10;;;5.97;;
55710;SDS011;41612;51.994;5.880;2023-10-31T09:12:31;11.90;;;7.18;;
55710;SDS011;41612;51.994;5.880;2023-10-31T09:14:57;12.52;;;6.63;;
55710;SDS011;41612;51.994;5.880;2023-10-31T09:17:23;11.52;;;5.95;;
55710;SDS011;41612;51.994;5.880;2023-10-31T09:19:49;9.25;;;5.53;;
55710;SDS011;41612;51.994;5.880;2023-10-31T09:22:14;16.40;;;6.80;;
55710;SDS011;41612;51.994;5.880;2023-10-31T09:24:41;10.63;;;5.95;;
55710;SDS011;41612;51.994;5.880;2023-10-31T09:27:07;9.38;;;5.72;;
55710;SDS011;41612;51.994;5.880;2023-10-31T09:29:34;10.00;;;4.55;;
55710;SDS011;41612;51.994;5.880;2023-10-31T09:32:03;8.77;;;3.53;;
55710;SDS011;41612;51.994;5.880;2023-10-31T09:34:31;5.00;;;2.90;;
55710;SDS011;41612;51.994;5.880;2023-10-31T09:36:57;13.65;;;5.63;;
55710;SDS011;41612;51.994;5.880;2023-10-31T09:39:23;6.50;;;3.50;;
55710;SDS011;41612;51.994;5.880;2023-10-31T09:41:49;9.98;;;4.95;;
55710;SDS011;41612;51.994;5.880;2023-10-31T09:44:15;12.77;;;5.65;;
55710;SDS011;41612;51.994;5.880;2023-10-31T09:46:40;9.55;;;4.15;;
55710;SDS011;41612;51.994;5.880;2023-10-31T09:49:07;12.23;;;5.32;;
55710;SDS011;41612;51.994;5.880;2023-10-31T09:51:33;7.82;;;3.40;;
55710;SDS011;41612;51.994;5.880;2023-10-31T09:53:59;12.30;;;4.90;;
55710;SDS011;41612;51.994;5.880;2023-10-31T09:56:28;10.52;;;6.00;;
55710;SDS011;41612;51.994;5.880;2023-10-31T09:58:59;7.15;;;4.13;;
55710;SDS011;41612;51.994;5.880;2023-10-31T10:01:28;8.00;;;4.25;;
55710;SDS011;41612;51.994;5.880;2023-10-31T10:03:54;6.75;;;2.65;;
55710;SDS011;41612;51.994;5.880;2023-10-31T10:06:22;4.88;;;3.42;;
55710;SDS011;41612;51.994;5.880;2023-10-31T10:08:49;10.18;;;5.60;;
55710;SDS011;41612;51.994;5.880;2023-10-31T10:11:15;3.75;;;1.98;;
55710;SDS011;41612;51.994;5.880;2023-10-31T10:13:41;5.82;;;2.97;;
55710;SDS011;41612;51.994;5.880;2023-10-31T10:16:08;7.70;;;4.45;;
55710;SDS011;41612;51.994;5.880;2023-10-31T10:18:37;8.65;;;3.15;;
55710;SDS011;41612;51.994;5.880;2023-10-31T10:21:05;9.60;;;6.78;;
55710;SDS011;41612;51.994;5.880;2023-10-31T10:23:32;14.43;;;7.90;;
55710;SDS011;41612;51.994;5.880;2023-10-31T10:25:59;9.52;;;6.45;;
55710;SDS011;41612;51.994;5.880;2023-10-31T10:28:25;11.25;;;6.90;;
55710;SDS011;41612;51.994;5.880;2023-10-31T10:30:52;11.07;;;6.82;;
55710;SDS011;41612;51.994;5.880;2023-10-31T10:33:19;12.88;;;6.47;;
55710;SDS011;41612;51.994;5.880;2023-10-31T10:35:45;12.13;;;6.38;;
55710;SDS011;41612;51.994;5.880;2023-10-31T10:38:12;14.20;;;6.13;;
55710;SDS011;41612;51.994;5.880;2023-10-31T10:40:45;11.20;;;6.30;;
55710;SDS011;41612;51.994;5.880;2023-10-31T10:43:22;10.73;;;5.05;;
55710;SDS011;41612;51.994;5.880;2023-10-31T10:45:55;9.30;;;4.75;;
55710;SDS011;41612;51.994;5.880;2023-10-31T10:48:23;9.82;;;5.53;;
55710;SDS011;41612;51.994;5.880;2023-10-31T10:50:52;6.95;;;4.22;;
55710;SDS011;41612;51.994;5.880;2023-10-31T10:53:25;12.27;;;6.00;;
55710;SDS011;41612;51.994;5.880;2023-10-31T10:56:03;10.25;;;4.95;;
55710;SDS011;41612;51.994;5.880;2023-10-31T10:58:41;11.25;;;4.85;;
55710;SDS011;41612;51.994;5.880;2023-10-31T11:01:19;5.95;;;3.15;;
55710;SDS011;41612;51.994;5.880;2023-10-31T11:03:46;7.45;;;3.33;;
55710;SDS011;41612;51.994;5.880;2023-10-31T11:06:12;8.95;;;4.78;;
55710;SDS011;41612;51.994;5.880;2023-10-31T11:08:40;9.07;;;5.38;;
55710;SDS011;41612;51.994;5.880;2023-10-31T11:11:07;11.95;;;7.20;;
55710;SDS011;41612;51.994;5.880;2023-10-31T11:13:35;9.77;;;3.95;;
55710;SDS011;41612;51.994;5.880;2023-10-31T11:16:09;6.80;;;5.55;;
55710;SDS011;41612;51.994;5.880;2023-10-31T11:18:41;11.77;;;6.68;;
55710;SDS011;41612;51.994;5.880;2023-10-31T11:21:07;14.63;;;6.80;;
55710;SDS011;41612;51.994;5.880;2023-10-31T11:23:33;10.05;;;6.22;;
55710;SDS011;41612;51.994;5.880;2023-10-31T11:26:01;12.43;;;7.43;;
55710;SDS011;41612;51.994;5.880;2023-10-31T11:28:27;10.57;;;6.65;;
55710;SDS011;41612;51.994;5.880;2023-10-31T11:30:53;12.35;;;7.05;;
55710;SDS011;41612;51.994;5.880;2023-10-31T11:33:24;13.00;;;8.63;;
55710;SDS011;41612;51.994;5.880;2023-10-31T11:35:51;13.50;;;11.07;;
55710;SDS011;41612;51.994;5.880;2023-10-31T11:38:32;17.27;;;12.98;;
55710;SDS011;41612;51.994;5.880;2023-10-31T11:41:05;16.52;;;12.30;;
55710;SDS011;41612;51.994;5.880;2023-10-31T11:46:19;15.77;;;11.13;;
55710;SDS011;41612;51.994;5.880;2023-10-31T11:48:51;18.60;;;12.60;;
55710;SDS011;41612;51.994;5.880;2023-10-31T11:51:21;18.17;;;13.70;;
55710;SDS011;41612;51.994;5.880;2023-10-31T11:57:28;16.20;;;13.05;;
55710;SDS011;41612;51.994;5.880;2023-10-31T11:59:57;16.17;;;11.40;;
55710;SDS011;41612;51.994;5.880;2023-10-31T12:02:23;11.23;;;8.00;;
55710;SDS011;41612;51.994;5.880;2023-10-31T12:04:48;21.80;;;13.52;;
55710;SDS011;41612;51.994;5.880;2023-10-31T12:07:14;10.32;;;8.05;;
55710;SDS011;41612;51.994;5.880;2023-10-31T12:09:46;20.73;;;16.38;;
55710;SDS011;41612;51.994;5.880;2023-10-31T12:12:13;19.30;;;14.43;;
55710;SDS011;41612;51.994;5.880;2023-10-31T12:14:39;18.63;;;14.05;;
55710;SDS011;41612;51.994;5.880;2023-10-31T12:17:05;19.30;;;15.30;;
55710;SDS011;41612;51.994;5.880;2023-10-31T12:19:32;13.52;;;8.40;;
55710;SDS011;41612;51.994;5.880;2023-10-31T12:21:58;24.02;;;15.40;;
55710;SDS011;41612;51.994;5.880;2023-10-31T12:24:24;22.33;;;13.75;;
55710;SDS011;41612;51.994;5.880;2023-10-31T12:26:50;15.88;;;8.85;;
55710;SDS011;41612;51.994;5.880;2023-10-31T12:29:17;20.40;;;13.90;;
55710;SDS011;41612;51.994;5.880;2023-10-31T12:34:11;23.17;;;13.85;;
55710;SDS011;41612;51.994;5.880;2023-10-31T12:36:37;19.90;;;12.73;;
55710;SDS011;41612;51.994;5.880;2023-10-31T12:39:04;29.95;;;16.33;;
55710;SDS011;41612;51.994;5.880;2023-10-31T12:41:34;21.98;;;14.88;;
55710;SDS011;41612;51.994;5.880;2023-10-31T12:44:00;32.38;;;16.08;;
55710;SDS011;41612;51.994;5.880;2023-10-31T12:46:27;23.45;;;14.13;;
55710;SDS011;41612;51.994;5.880;2023-10-31T12:48:54;24.52;;;15.45;;
55710;SDS011;41612;51.994;5.880;2023-10-31T12:51:24;22.02;;;13.27;;
55710;SDS011;41612;51.994;5.880;2023-10-31T12:53:50;17.10;;;10.30;;
55710;SDS011;41612;51.994;5.880;2023-10-31T12:59:08;22.00;;;14.95;;
55710;SDS011;41612;51.994;5.880;2023-10-31T13:01:43;27.02;;;15.98;;
55710;SDS011;41612;51.994;5.880;2023-10-31T13:04:23;15.43;;;10.55;;
55710;SDS011;41612;51.994;5.880;2023-10-31T13:06:56;25.00;;;15.77;;
55710;SDS011;41612;51.994;5.880;2023-10-31T13:09:53;31.73;;;18.05;;
55710;SDS011;41612;51.994;5.880;2023-10-31T13:12:22;23.52;;;15.65;;
55710;SDS011;41612;51.994;5.880;2023-10-31T13:14:58;15.77;;;9.80;;
55710;SDS011;41612;51.994;5.880;2023-10-31T13:17:23;27.30;;;16.00;;
55710;SDS011;41612;51.994;5.880;2023-10-31T13:19:49;23.23;;;15.32;;
55710;SDS011;41612;51.994;5.880;2023-10-31T13:22:19;29.60;;;16.48;;
55710;SDS011;41612;51.994;5.880;2023-10-31T13:24:49;21.08;;;14.38;;
55710;SDS011;41612;51.994;5.880;2023-10-31T13:27:16;22.10;;;14.25;;
55710;SDS011;41612;51.994;5.880;2023-10-31T13:29:44;27.42;;;17.50;;
55710;SDS011;41612;51.994;5.880;2023-10-31T13:32:13;26.92;;;16.40;;
55710;SDS011;41612;51.994;5.880;2023-10-31T13:34:40;25.63;;;15.82;;
55710;SDS011;41612;51.994;5.880;2023-10-31T13:37:15;25.65;;;14.20;;
55710;SDS011;41612;51.994;5.880;2023-10-31T13:39:56;22.30;;;15.80;;
55710;SDS011;41612;51.994;5.880;2023-10-31T13:42:29;19.48;;;13.02;;
55710;SDS011;41612;51.994;5.880;2023-10-31T13:45:17;26.00;;;16.60;;
55710;SDS011;41612;51.994;5.880;2023-10-31T14:04:05;24.00;;;16.33;;
55710;SDS011;41612;51.994;5.880;2023-10-31T14:06:40;15.68;;;11.63;;
55710;SDS011;41612;51.994;5.880;2023-10-31T14:09:12;21.13;;;13.45;;
55710;SDS011;41612;51.994;5.880;2023-10-31T14:11:45;21.67;;;13.43;;
55710;SDS011;41612;51.994;5.880;2023-10-31T14:14:18;20.35;;;14.15;;
55710;SDS011;41612;51.994;5.880;2023-10-31T14:17:32;23.45;;;15.32;;
55710;SDS011;41612;51.994;5.880;2023-10-31T14:20:06;15.45;;;11.13;;
55710;SDS011;41612;51.994;5.880;2023-10-31T14:23:24;19.02;;;12.20;;
55710;SDS011;41612;51.994;5.880;2023-10-31T14:25:55;18.60;;;13.55;;
55710;SDS011;41612;51.994;5.880;2023-10-31T14:28:33;17.35;;;12.27;;
55710;SDS011;41612;51.994;5.880;2023-10-31T14:31:39;13.18;;;9.13;;
55710;SDS011;41612;51.994;5.880;2023-10-31T14:34:10;21.50;;;12.98;;
55710;SDS011;41612;51.994;5.880;2023-10-31T14:36:36;17.42;;;12.73;;
55710;SDS011;41612;51.994;5.880;2023-10-31T14:39:15;17.88;;;12.10;;
55710;SDS011;41612;51.994;5.880;2023-10-31T14:41:42;12.40;;;9.18;;
55710;SDS011;41612;51.994;5.880;2023-10-31T14:44:10;16.77;;;11.30;;
55710;SDS011;41612;51.994;5.880;2023-10-31T14:46:36;16.73;;;11.82;;
55710;SDS011;41612;51.994;5.880;2023-10-31T14:49:05;21.40;;;14.20;;
55710;SDS011;41612;51.994;5.880;2023-10-31T14:51:30;14.52;;;11.55;;
55710;SDS011;41612;51.994;5.880;2023-10-31T14:53:56;18.88;;;11.15;;
55710;SDS011;41612;51.994;5.880;2023-10-31T14:56:25;17.92;;;11.18;;
55710;SDS011;41612;51.994;5.880;2023-10-31T14:58:54;18.35;;;12.55;;
55710;SDS011;41612;51.994;5.880;2023-10-31T15:01:23;17.90;;;12.52;;
55710;SDS011;41612;51.994;5.880;2023-10-31T15:03:49;21.05;;;12.38;;
55710;SDS011;41612;51.994;5.880;2023-10-31T15:06:17;15.77;;;10.77;;
55710;SDS011;41612;51.994;5.880;2023-10-31T15:08:46;13.25;;;8.93;;
55710;SDS011;41612;51.994;5.880;2023-10-31T15:11:12;11.18;;;7.88;;
55710;SDS011;41612;51.994;5.880;2023-10-31T15:13:42;15.98;;;7.13;;
55710;SDS011;41612;51.994;5.880;2023-10-31T15:16:08;9.18;;;6.97;;
55710;SDS011;41612;51.994;5.880;2023-10-31T15:18:33;10.57;;;6.85;;
55710;SDS011;41612;51.994;5.880;2023-10-31T15:20:59;9.30;;;6.70;;
55710;SDS011;41612;51.994;5.880;2023-10-31T15:23:25;8.57;;;5.85;;
55710;SDS011;41612;51.994;5.880;2023-10-31T15:25:54;8.73;;;6.50;;
55710;SDS011;41612;51.994;5.880;2023-10-31T15:28:23;10.23;;;5.78;;
55710;SDS011;41612;51.994;5.880;2023-10-31T15:30:52;10.25;;;6.70;;
55710;SDS011;41612;51.994;5.880;2023-10-31T15:33:23;14.05;;;6.70;;
55710;SDS011;41612;51.994;5.880;2023-10-31T15:35:58;8.88;;;6.25;;
55710;SDS011;41612;51.994;5.880;2023-10-31T15:38:24;8.43;;;6.25;;
55710;SDS011;41612;51.994;5.880;2023-10-31T15:40:51;9.45;;;6.00;;
55710;SDS011;41612;51.994;5.880;2023-10-31T15:43:17;7.03;;;5.45;;
55710;SDS011;41612;51.994;5.880;2023-10-31T15:45:43;7.38;;;5.88;;
55710;SDS011;41612;51.994;5.880;2023-10-31T15:48:14;12.75;;;6.60;;
55710;SDS011;41612;51.994;5.880;2023-10-31T15:50:45;10.57;;;6.80;;
55710;SDS011;41612;51.994;5.880;2023-10-31T15:53:19;11.20;;;7.25;;
55710;SDS011;41612;51.994;5.880;2023-10-31T15:55:50;13.63;;;9.68;;
55710;SDS011;41612;51.994;5.880;2023-10-31T15:58:18;11.40;;;8.07;;
55710;SDS011;41612;51.994;5.880;2023-10-31T16:00:44;15.48;;;9.77;;
55710;SDS011;41612;51.994;5.880;2023-10-31T16:03:13;16.52;;;9.20;;
55710;SDS011;41612;51.994;5.880;2023-10-31T16:05:38;13.95;;;8.73;;
55710;SDS011;41612;51.994;5.880;2023-10-31T16:08:12;12.35;;;8.55;;
55710;SDS011;41612;51.994;5.880;2023-10-31T16:10:53;13.32;;;8.02;;
55710;SDS011;41612;51.994;5.880;2023-10-31T16:13:27;8.95;;;7.15;;
55710;SDS011;41612;51.994;5.880;2023-10-31T16:15:58;11.20;;;8.13;;
55710;SDS011;41612;51.994;5.880;2023-10-31T16:18:30;10.63;;;6.28;;
55710;SDS011;41612;51.994;5.880;2023-10-31T16:21:22;9.15;;;6.38;;
55710;SDS011;41612;51.994;5.880;2023-10-31T16:24:00;10.00;;;6.88;;
55710;SDS011;41612;51.994;5.880;2023-10-31T16:26:26;10.02;;;6.03;;